Airport View

Enter AWOS ICAO identifier for current METAR.

ex. KFNL

KEFT 250131Z AUTO 08003KT 10SM CLR 24/19 A2987 RMK AO2 T02400187

25 May 2020 01:23

Frequency: 118.375

Phone: 608-328-8359

Other Area AWOS: KFEP - KJVL - KC29 - KMRJ

TAF KMSN 242320Z 2500/2524 17005KT P6SM FEW250 FM251000 16003KT 4SM BR SCT010 FM251300 18006KT P6SM FEW015 FM251800 20009KT P6SM BKN100